aviador You're here:

OINR Decoded Metar

RAMSAR in IRAN
Report Time2018-07-20 06:00:00
UTC Time2018-07-20 06:19:46
Flight Rules vfr VFR
Wind010° at 08 kt
W.Decomp.*RWY 31: 4.5 kt HW 6.6 kt RCW
W.Rank010° ranks 19
Current wind is above 010° avg. (5.8)
Visibility9999 m
Phenomena:N/A
Clouds:Few CB 025 Hf
Scattered 027 Hf
Broken 100 Hf
Expected CloudBase > 1,200 ft AGL from Temp-Dew spread
Ceiling10,000 ft
Temp30°C (ISA +15)
Dew Point27°C (84% RH)
Heat Index38.8°C
QNH1001 hPa
Density Alt2,510 ft
Elevation-66 ft
Report Wrong Elevation
Raw Report
METAR OINR 200600Z 01008KT 9999 FEW025CB SCT027 BKN100 30/27 Q1001=

Extra information for OINR:More info

Metar Taf Metar & Taf Last 4 Metars F.Rules Stats Wind Profile Meteogram Temp Stats Airport Information Weather charts Add Link Nearby VenuesMetar ALERT Operation Metar Decoded Social comments